sensor_id;sensor_type;location;lat;lon;timestamp;P1;durP1;ratioP1;P2;durP2;ratioP2
40459;SDS011;26164;51.138;16.952;2023-07-13T00:01:55;13.52;;;8.00;;
40459;SDS011;26164;51.138;16.952;2023-07-13T00:04:21;10.68;;;7.03;;
40459;SDS011;26164;51.138;16.952;2023-07-13T00:06:48;14.23;;;7.07;;
40459;SDS011;26164;51.138;16.952;2023-07-13T00:09:15;12.50;;;6.10;;
40459;SDS011;26164;51.138;16.952;2023-07-13T00:11:42;15.27;;;5.57;;
40459;SDS011;26164;51.138;16.952;2023-07-13T00:14:08;12.52;;;6.30;;
40459;SDS011;26164;51.138;16.952;2023-07-13T00:16:35;10.80;;;6.50;;
40459;SDS011;26164;51.138;16.952;2023-07-13T00:19:01;11.27;;;6.57;;
40459;SDS011;26164;51.138;16.952;2023-07-13T00:21:27;12.55;;;6.13;;
40459;SDS011;26164;51.138;16.952;2023-07-13T00:23:53;11.95;;;5.60;;
40459;SDS011;26164;51.138;16.952;2023-07-13T00:26:19;9.45;;;5.75;;
40459;SDS011;26164;51.138;16.952;2023-07-13T00:28:44;9.93;;;5.38;;
40459;SDS011;26164;51.138;16.952;2023-07-13T00:31:11;13.52;;;5.63;;
40459;SDS011;26164;51.138;16.952;2023-07-13T00:33:37;10.20;;;6.22;;
40459;SDS011;26164;51.138;16.952;2023-07-13T00:36:03;18.55;;;5.95;;
40459;SDS011;26164;51.138;16.952;2023-07-13T00:38:29;10.35;;;5.88;;
40459;SDS011;26164;51.138;16.952;2023-07-13T00:40:55;9.50;;;6.05;;
40459;SDS011;26164;51.138;16.952;2023-07-13T00:43:22;10.00;;;6.40;;
40459;SDS011;26164;51.138;16.952;2023-07-13T00:48:23;11.80;;;6.78;;
40459;SDS011;26164;51.138;16.952;2023-07-13T00:50:50;12.13;;;6.32;;
40459;SDS011;26164;51.138;16.952;2023-07-13T00:53:17;14.35;;;7.07;;
40459;SDS011;26164;51.138;16.952;2023-07-13T00:55:43;15.13;;;6.57;;
40459;SDS011;26164;51.138;16.952;2023-07-13T00:58:09;8.68;;;6.20;;
40459;SDS011;26164;51.138;16.952;2023-07-13T01:00:35;16.73;;;6.53;;
40459;SDS011;26164;51.138;16.952;2023-07-13T01:03:01;10.57;;;6.22;;
40459;SDS011;26164;51.138;16.952;2023-07-13T01:05:30;10.43;;;6.65;;
40459;SDS011;26164;51.138;16.952;2023-07-13T01:07:57;14.52;;;6.72;;
40459;SDS011;26164;51.138;16.952;2023-07-13T01:10:23;13.63;;;6.95;;
40459;SDS011;26164;51.138;16.952;2023-07-13T01:12:49;13.05;;;6.30;;
40459;SDS011;26164;51.138;16.952;2023-07-13T01:17:59;13.38;;;7.40;;
40459;SDS011;26164;51.138;16.952;2023-07-13T01:20:25;10.77;;;6.35;;
40459;SDS011;26164;51.138;16.952;2023-07-13T01:22:51;13.32;;;6.40;;
40459;SDS011;26164;51.138;16.952;2023-07-13T01:25:18;10.70;;;6.43;;
40459;SDS011;26164;51.138;16.952;2023-07-13T01:27:44;12.95;;;6.63;;
40459;SDS011;26164;51.138;16.952;2023-07-13T01:30:24;8.93;;;5.85;;
40459;SDS011;26164;51.138;16.952;2023-07-13T01:32:50;11.75;;;5.32;;
40459;SDS011;26164;51.138;16.952;2023-07-13T01:35:16;11.48;;;5.28;;
40459;SDS011;26164;51.138;16.952;2023-07-13T01:37:42;6.90;;;4.60;;
40459;SDS011;26164;51.138;16.952;2023-07-13T01:40:10;7.70;;;4.00;;
40459;SDS011;26164;51.138;16.952;2023-07-13T01:42:36;6.68;;;3.40;;
40459;SDS011;26164;51.138;16.952;2023-07-13T01:45:08;5.47;;;3.00;;
40459;SDS011;26164;51.138;16.952;2023-07-13T01:47:33;6.82;;;3.45;;
40459;SDS011;26164;51.138;16.952;2023-07-13T01:49:59;8.05;;;3.75;;
40459;SDS011;26164;51.138;16.952;2023-07-13T01:52:25;12.23;;;3.92;;
40459;SDS011;26164;51.138;16.952;2023-07-13T01:54:50;8.07;;;4.20;;
40459;SDS011;26164;51.138;16.952;2023-07-13T01:57:16;8.45;;;3.80;;
40459;SDS011;26164;51.138;16.952;2023-07-13T01:59:42;7.38;;;4.25;;
40459;SDS011;26164;51.138;16.952;2023-07-13T02:02:07;10.05;;;4.80;;
40459;SDS011;26164;51.138;16.952;2023-07-13T02:04:34;8.20;;;4.75;;
40459;SDS011;26164;51.138;16.952;2023-07-13T02:07:01;7.57;;;4.75;;
40459;SDS011;26164;51.138;16.952;2023-07-13T02:09:28;7.35;;;4.93;;
40459;SDS011;26164;51.138;16.952;2023-07-13T02:11:54;8.82;;;5.60;;
40459;SDS011;26164;51.138;16.952;2023-07-13T02:14:19;10.77;;;5.45;;
40459;SDS011;26164;51.138;16.952;2023-07-13T02:16:45;10.98;;;5.10;;
40459;SDS011;26164;51.138;16.952;2023-07-13T02:19:10;9.90;;;6.05;;
40459;SDS011;26164;51.138;16.952;2023-07-13T02:21:36;12.93;;;5.82;;
40459;SDS011;26164;51.138;16.952;2023-07-13T02:24:02;11.23;;;6.32;;
40459;SDS011;26164;51.138;16.952;2023-07-13T02:26:27;10.38;;;6.13;;
40459;SDS011;26164;51.138;16.952;2023-07-13T02:28:54;10.43;;;5.78;;
40459;SDS011;26164;51.138;16.952;2023-07-13T02:31:21;12.93;;;6.60;;
40459;SDS011;26164;51.138;16.952;2023-07-13T02:33:46;15.68;;;7.65;;
40459;SDS011;26164;51.138;16.952;2023-07-13T02:36:12;11.63;;;6.95;;
40459;SDS011;26164;51.138;16.952;2023-07-13T02:38:44;13.10;;;7.10;;
40459;SDS011;26164;51.138;16.952;2023-07-13T02:41:10;13.65;;;8.00;;
40459;SDS011;26164;51.138;16.952;2023-07-13T02:43:39;9.75;;;6.93;;
40459;SDS011;26164;51.138;16.952;2023-07-13T02:46:08;14.57;;;7.43;;
40459;SDS011;26164;51.138;16.952;2023-07-13T02:48:35;11.65;;;7.85;;
40459;SDS011;26164;51.138;16.952;2023-07-13T02:51:01;13.88;;;7.38;;
40459;SDS011;26164;51.138;16.952;2023-07-13T02:53:27;14.20;;;7.82;;
40459;SDS011;26164;51.138;16.952;2023-07-13T02:55:55;11.65;;;7.80;;
40459;SDS011;26164;51.138;16.952;2023-07-13T02:58:21;12.05;;;7.68;;
40459;SDS011;26164;51.138;16.952;2023-07-13T03:00:47;10.75;;;8.07;;
40459;SDS011;26164;51.138;16.952;2023-07-13T03:03:13;10.60;;;8.05;;
40459;SDS011;26164;51.138;16.952;2023-07-13T03:05:41;12.35;;;7.78;;
40459;SDS011;26164;51.138;16.952;2023-07-13T03:08:08;11.68;;;7.57;;
40459;SDS011;26164;51.138;16.952;2023-07-13T03:10:34;12.05;;;7.55;;
40459;SDS011;26164;51.138;16.952;2023-07-13T03:13:00;12.38;;;8.00;;
40459;SDS011;26164;51.138;16.952;2023-07-13T03:15:30;12.82;;;7.55;;
40459;SDS011;26164;51.138;16.952;2023-07-13T03:17:57;10.80;;;6.45;;
40459;SDS011;26164;51.138;16.952;2023-07-13T03:20:23;12.15;;;7.70;;
40459;SDS011;26164;51.138;16.952;2023-07-13T03:22:49;11.55;;;6.30;;
40459;SDS011;26164;51.138;16.952;2023-07-13T03:25:16;10.23;;;5.55;;
40459;SDS011;26164;51.138;16.952;2023-07-13T03:27:42;8.63;;;5.47;;
40459;SDS011;26164;51.138;16.952;2023-07-13T03:30:09;8.27;;;5.43;;
40459;SDS011;26164;51.138;16.952;2023-07-13T03:32:34;7.70;;;4.55;;
40459;SDS011;26164;51.138;16.952;2023-07-13T03:35:00;8.93;;;5.30;;
40459;SDS011;26164;51.138;16.952;2023-07-13T03:37:28;10.45;;;5.35;;
40459;SDS011;26164;51.138;16.952;2023-07-13T03:39:54;11.32;;;5.50;;
40459;SDS011;26164;51.138;16.952;2023-07-13T03:42:20;11.25;;;6.45;;
40459;SDS011;26164;51.138;16.952;2023-07-13T03:44:45;13.23;;;6.00;;
40459;SDS011;26164;51.138;16.952;2023-07-13T03:47:17;12.50;;;6.95;;
40459;SDS011;26164;51.138;16.952;2023-07-13T03:49:44;10.65;;;6.63;;
40459;SDS011;26164;51.138;16.952;2023-07-13T03:52:11;14.07;;;7.03;;
40459;SDS011;26164;51.138;16.952;2023-07-13T03:54:37;9.25;;;5.70;;
40459;SDS011;26164;51.138;16.952;2023-07-13T03:57:02;9.93;;;6.07;;
40459;SDS011;26164;51.138;16.952;2023-07-13T03:59:31;11.32;;;5.93;;
40459;SDS011;26164;51.138;16.952;2023-07-13T04:01:56;8.75;;;6.35;;
40459;SDS011;26164;51.138;16.952;2023-07-13T04:04:22;11.77;;;6.40;;
40459;SDS011;26164;51.138;16.952;2023-07-13T04:06:48;11.43;;;6.18;;
40459;SDS011;26164;51.138;16.952;2023-07-13T04:09:13;11.45;;;7.22;;
40459;SDS011;26164;51.138;16.952;2023-07-13T04:11:39;12.73;;;6.68;;
40459;SDS011;26164;51.138;16.952;2023-07-13T04:14:05;9.65;;;5.18;;
40459;SDS011;26164;51.138;16.952;2023-07-13T04:16:33;10.85;;;6.50;;
40459;SDS011;26164;51.138;16.952;2023-07-13T04:18:58;13.25;;;6.15;;
40459;SDS011;26164;51.138;16.952;2023-07-13T04:21:26;6.30;;;4.07;;
40459;SDS011;26164;51.138;16.952;2023-07-13T04:23:52;7.15;;;3.83;;
40459;SDS011;26164;51.138;16.952;2023-07-13T04:26:17;6.45;;;3.20;;
40459;SDS011;26164;51.138;16.952;2023-07-13T04:28:49;6.95;;;3.25;;
40459;SDS011;26164;51.138;16.952;2023-07-13T04:31:15;9.57;;;3.70;;
40459;SDS011;26164;51.138;16.952;2023-07-13T04:33:41;6.50;;;3.83;;
40459;SDS011;26164;51.138;16.952;2023-07-13T04:36:08;9.27;;;4.47;;
40459;SDS011;26164;51.138;16.952;2023-07-13T04:38:50;6.07;;;3.80;;
40459;SDS011;26164;51.138;16.952;2023-07-13T04:41:16;11.93;;;4.13;;
40459;SDS011;26164;51.138;16.952;2023-07-13T04:43:42;11.45;;;4.93;;
40459;SDS011;26164;51.138;16.952;2023-07-13T04:46:13;13.38;;;5.32;;
40459;SDS011;26164;51.138;16.952;2023-07-13T04:48:39;10.55;;;3.80;;
40459;SDS011;26164;51.138;16.952;2023-07-13T04:51:05;13.52;;;5.88;;
40459;SDS011;26164;51.138;16.952;2023-07-13T04:53:31;10.55;;;5.57;;
40459;SDS011;26164;51.138;16.952;2023-07-13T04:55:57;9.55;;;5.07;;
40459;SDS011;26164;51.138;16.952;2023-07-13T04:58:24;9.50;;;5.45;;
40459;SDS011;26164;51.138;16.952;2023-07-13T05:00:50;7.10;;;4.13;;
40459;SDS011;26164;51.138;16.952;2023-07-13T05:03:15;9.38;;;4.90;;
40459;SDS011;26164;51.138;16.952;2023-07-13T05:05:41;8.65;;;4.47;;
40459;SDS011;26164;51.138;16.952;2023-07-13T05:08:07;11.63;;;4.97;;
40459;SDS011;26164;51.138;16.952;2023-07-13T05:10:33;9.27;;;6.13;;
40459;SDS011;26164;51.138;16.952;2023-07-13T05:12:59;8.82;;;6.03;;
40459;SDS011;26164;51.138;16.952;2023-07-13T05:15:25;12.82;;;6.72;;
40459;SDS011;26164;51.138;16.952;2023-07-13T05:17:51;13.75;;;7.03;;
40459;SDS011;26164;51.138;16.952;2023-07-13T05:20:18;11.68;;;6.05;;
40459;SDS011;26164;51.138;16.952;2023-07-13T05:22:43;11.75;;;6.78;;
40459;SDS011;26164;51.138;16.952;2023-07-13T05:25:09;12.85;;;8.43;;
40459;SDS011;26164;51.138;16.952;2023-07-13T05:27:35;13.65;;;8.68;;
40459;SDS011;26164;51.138;16.952;2023-07-13T05:30:01;11.13;;;7.25;;
40459;SDS011;26164;51.138;16.952;2023-07-13T05:32:27;12.32;;;7.53;;
40459;SDS011;26164;51.138;16.952;2023-07-13T05:34:53;10.23;;;7.35;;
40459;SDS011;26164;51.138;16.952;2023-07-13T05:37:19;12.25;;;7.53;;
40459;SDS011;26164;51.138;16.952;2023-07-13T05:39:45;14.82;;;7.85;;
40459;SDS011;26164;51.138;16.952;2023-07-13T05:42:11;11.93;;;7.57;;
40459;SDS011;26164;51.138;16.952;2023-07-13T05:44:36;9.63;;;7.07;;
40459;SDS011;26164;51.138;16.952;2023-07-13T05:47:02;8.63;;;7.28;;
40459;SDS011;26164;51.138;16.952;2023-07-13T05:49:29;10.98;;;7.68;;
40459;SDS011;26164;51.138;16.952;2023-07-13T05:51:55;9.75;;;7.38;;
40459;SDS011;26164;51.138;16.952;2023-07-13T05:54:21;10.25;;;6.50;;
40459;SDS011;26164;51.138;16.952;2023-07-13T05:56:47;9.07;;;6.72;;
40459;SDS011;26164;51.138;16.952;2023-07-13T05:59:13;9.27;;;6.15;;
40459;SDS011;26164;51.138;16.952;2023-07-13T06:01:39;10.48;;;6.00;;
40459;SDS011;26164;51.138;16.952;2023-07-13T06:04:04;9.63;;;5.60;;
40459;SDS011;26164;51.138;16.952;2023-07-13T06:06:30;10.55;;;6.35;;
40459;SDS011;26164;51.138;16.952;2023-07-13T06:08:56;11.35;;;6.03;;
40459;SDS011;26164;51.138;16.952;2023-07-13T06:11:22;7.68;;;5.57;;
40459;SDS011;26164;51.138;16.952;2023-07-13T06:13:49;10.63;;;5.90;;
40459;SDS011;26164;51.138;16.952;2023-07-13T06:16:14;11.43;;;6.63;;
40459;SDS011;26164;51.138;16.952;2023-07-13T06:18:41;7.47;;;5.70;;
40459;SDS011;26164;51.138;16.952;2023-07-13T06:21:08;13.27;;;6.57;;
40459;SDS011;26164;51.138;16.952;2023-07-13T06:23:34;11.32;;;6.10;;
40459;SDS011;26164;51.138;16.952;2023-07-13T06:25:59;9.95;;;6.00;;
40459;SDS011;26164;51.138;16.952;2023-07-13T06:28:25;10.73;;;5.90;;
40459;SDS011;26164;51.138;16.952;2023-07-13T06:30:51;9.07;;;5.78;;
40459;SDS011;26164;51.138;16.952;2023-07-13T06:33:16;11.90;;;6.20;;
40459;SDS011;26164;51.138;16.952;2023-07-13T06:35:42;10.18;;;5.53;;
40459;SDS011;26164;51.138;16.952;2023-07-13T06:38:08;8.10;;;4.88;;
40459;SDS011;26164;51.138;16.952;2023-07-13T06:40:33;7.13;;;5.13;;
40459;SDS011;26164;51.138;16.952;2023-07-13T06:42:59;7.45;;;5.10;;
40459;SDS011;26164;51.138;16.952;2023-07-13T06:45:25;9.55;;;4.93;;
40459;SDS011;26164;51.138;16.952;2023-07-13T06:47:50;8.95;;;6.15;;
40459;SDS011;26164;51.138;16.952;2023-07-13T06:50:16;10.98;;;6.50;;
40459;SDS011;26164;51.138;16.952;2023-07-13T06:52:42;10.63;;;6.55;;
40459;SDS011;26164;51.138;16.952;2023-07-13T06:55:07;8.10;;;6.57;;
40459;SDS011;26164;51.138;16.952;2023-07-13T06:57:33;11.63;;;6.70;;
40459;SDS011;26164;51.138;16.952;2023-07-13T06:59:59;9.60;;;5.90;;
40459;SDS011;26164;51.138;16.952;2023-07-13T07:02:25;12.32;;;6.35;;
40459;SDS011;26164;51.138;16.952;2023-07-13T07:04:50;15.48;;;7.07;;
40459;SDS011;26164;51.138;16.952;2023-07-13T07:07:16;14.85;;;8.68;;
40459;SDS011;26164;51.138;16.952;2023-07-13T07:09:41;20.30;;;11.98;;
40459;SDS011;26164;51.138;16.952;2023-07-13T07:12:07;14.75;;;11.73;;
40459;SDS011;26164;51.138;16.952;2023-07-13T07:14:33;13.32;;;10.38;;
40459;SDS011;26164;51.138;16.952;2023-07-13T07:17:00;15.52;;;9.48;;
40459;SDS011;26164;51.138;16.952;2023-07-13T07:19:26;13.20;;;9.07;;
40459;SDS011;26164;51.138;16.952;2023-07-13T07:21:51;12.18;;;8.93;;
40459;SDS011;26164;51.138;16.952;2023-07-13T07:24:17;23.92;;;8.73;;
40459;SDS011;26164;51.138;16.952;2023-07-13T07:26:43;12.80;;;7.55;;
40459;SDS011;26164;51.138;16.952;2023-07-13T07:29:08;11.15;;;7.90;;
40459;SDS011;26164;51.138;16.952;2023-07-13T07:31:34;14.55;;;8.25;;
40459;SDS011;26164;51.138;16.952;2023-07-13T07:34:02;11.10;;;7.95;;
40459;SDS011;26164;51.138;16.952;2023-07-13T07:36:28;11.93;;;8.65;;
40459;SDS011;26164;51.138;16.952;2023-07-13T07:38:53;11.80;;;9.70;;
40459;SDS011;26164;51.138;16.952;2023-07-13T07:41:19;19.52;;;9.82;;
40459;SDS011;26164;51.138;16.952;2023-07-13T07:43:45;13.50;;;9.40;;
40459;SDS011;26164;51.138;16.952;2023-07-13T07:46:11;13.70;;;9.52;;
40459;SDS011;26164;51.138;16.952;2023-07-13T07:48:38;15.80;;;8.60;;
40459;SDS011;26164;51.138;16.952;2023-07-13T07:51:03;10.77;;;7.43;;
40459;SDS011;26164;51.138;16.952;2023-07-13T07:53:29;11.27;;;7.55;;
40459;SDS011;26164;51.138;16.952;2023-07-13T07:55:55;13.98;;;7.30;;
40459;SDS011;26164;51.138;16.952;2023-07-13T07:58:20;13.15;;;7.63;;
40459;SDS011;26164;51.138;16.952;2023-07-13T08:00:46;14.82;;;8.90;;
40459;SDS011;26164;51.138;16.952;2023-07-13T08:03:12;12.93;;;9.50;;
40459;SDS011;26164;51.138;16.952;2023-07-13T08:05:38;15.48;;;8.70;;
40459;SDS011;26164;51.138;16.952;2023-07-13T08:08:03;11.27;;;8.30;;
40459;SDS011;26164;51.138;16.952;2023-07-13T08:10:29;10.63;;;6.70;;
40459;SDS011;26164;51.138;16.952;2023-07-13T08:12:55;12.07;;;6.28;;
40459;SDS011;26164;51.138;16.952;2023-07-13T08:15:21;11.32;;;5.63;;
40459;SDS011;26164;51.138;16.952;2023-07-13T08:17:48;9.35;;;5.00;;
40459;SDS011;26164;51.138;16.952;2023-07-13T08:20:15;7.20;;;4.88;;
40459;SDS011;26164;51.138;16.952;2023-07-13T08:22:40;9.63;;;5.43;;
40459;SDS011;26164;51.138;16.952;2023-07-13T08:25:06;8.50;;;4.82;;
40459;SDS011;26164;51.138;16.952;2023-07-13T08:27:33;12.13;;;5.00;;
40459;SDS011;26164;51.138;16.952;2023-07-13T08:29:59;10.50;;;4.22;;
40459;SDS011;26164;51.138;16.952;2023-07-13T08:32:24;8.15;;;3.63;;
40459;SDS011;26164;51.138;16.952;2023-07-13T08:34:50;6.13;;;4.03;;
40459;SDS011;26164;51.138;16.952;2023-07-13T08:37:16;8.85;;;3.65;;
40459;SDS011;26164;51.138;16.952;2023-07-13T08:39:42;8.40;;;3.20;;
40459;SDS011;26164;51.138;16.952;2023-07-13T08:42:13;8.85;;;3.45;;
40459;SDS011;26164;51.138;16.952;2023-07-13T08:44:47;8.00;;;3.30;;
40459;SDS011;26164;51.138;16.952;2023-07-13T08:47:15;5.65;;;3.65;;
40459;SDS011;26164;51.138;16.952;2023-07-13T08:49:42;5.57;;;3.53;;
40459;SDS011;26164;51.138;16.952;2023-07-13T08:52:10;5.95;;;2.80;;
40459;SDS011;26164;51.138;16.952;2023-07-13T08:54:44;7.25;;;3.53;;
40459;SDS011;26164;51.138;16.952;2023-07-13T08:57:15;5.40;;;3.72;;
40459;SDS011;26164;51.138;16.952;2023-07-13T08:59:43;9.52;;;4.18;;
40459;SDS011;26164;51.138;16.952;2023-07-13T09:04:41;5.90;;;4.00;;
40459;SDS011;26164;51.138;16.952;2023-07-13T09:07:15;7.00;;;3.85;;
40459;SDS011;26164;51.138;16.952;2023-07-13T09:12:26;6.32;;;2.90;;
40459;SDS011;26164;51.138;16.952;2023-07-13T09:14:55;5.47;;;3.00;;
40459;SDS011;26164;51.138;16.952;2023-07-13T09:20:29;8.13;;;2.95;;
40459;SDS011;26164;51.138;16.952;2023-07-13T09:22:59;8.23;;;2.80;;
40459;SDS011;26164;51.138;16.952;2023-07-13T09:25:30;6.70;;;2.70;;
40459;SDS011;26164;51.138;16.952;2023-07-13T09:27:57;9.18;;;2.63;;
40459;SDS011;26164;51.138;16.952;2023-07-13T09:30:32;6.30;;;2.30;;
40459;SDS011;26164;51.138;16.952;2023-07-13T09:32:59;4.72;;;2.17;;
40459;SDS011;26164;51.138;16.952;2023-07-13T09:35:27;5.32;;;2.00;;
40459;SDS011;26164;51.138;16.952;2023-07-13T09:37:57;6.70;;;2.30;;
40459;SDS011;26164;51.138;16.952;2023-07-13T09:43:07;3.13;;;2.00;;
40459;SDS011;26164;51.138;16.952;2023-07-13T09:45:36;5.30;;;2.10;;
40459;SDS011;26164;51.138;16.952;2023-07-13T09:48:12;3.58;;;1.45;;
40459;SDS011;26164;51.138;16.952;2023-07-13T09:50:39;4.43;;;2.15;;
40459;SDS011;26164;51.138;16.952;2023-07-13T09:53:10;4.85;;;2.00;;
40459;SDS011;26164;51.138;16.952;2023-07-13T09:55:38;6.55;;;1.80;;
40459;SDS011;26164;51.138;16.952;2023-07-13T09:58:23;3.10;;;2.00;;
40459;SDS011;26164;51.138;16.952;2023-07-13T10:00:54;3.88;;;1.52;;
40459;SDS011;26164;51.138;16.952;2023-07-13T10:03:22;4.90;;;1.70;;
40459;SDS011;26164;51.138;16.952;2023-07-13T10:05:50;2.83;;;1.27;;
40459;SDS011;26164;51.138;16.952;2023-07-13T10:08:28;2.70;;;1.40;;
40459;SDS011;26164;51.138;16.952;2023-07-13T10:11:00;2.72;;;0.95;;
40459;SDS011;26164;51.138;16.952;2023-07-13T10:13:36;2.67;;;1.30;;
40459;SDS011;26164;51.138;16.952;2023-07-13T10:16:04;5.95;;;1.15;;
40459;SDS011;26164;51.138;16.952;2023-07-13T10:18:31;4.32;;;1.20;;
40459;SDS011;26164;51.138;16.952;2023-07-13T10:21:00;4.15;;;1.45;;
40459;SDS011;26164;51.138;16.952;2023-07-13T10:23:34;9.85;;;1.50;;
40459;SDS011;26164;51.138;16.952;2023-07-13T10:26:00;3.55;;;1.20;;
40459;SDS011;26164;51.138;16.952;2023-07-13T10:30:53;4.45;;;1.33;;
40459;SDS011;26164;51.138;16.952;2023-07-13T10:33:19;4.95;;;1.30;;
40459;SDS011;26164;51.138;16.952;2023-07-13T10:35:46;3.50;;;1.23;;
40459;SDS011;26164;51.138;16.952;2023-07-13T10:38:14;4.55;;;1.42;;
40459;SDS011;26164;51.138;16.952;2023-07-13T10:40:42;3.67;;;1.40;;
40459;SDS011;26164;51.138;16.952;2023-07-13T10:43:13;2.60;;;1.27;;
40459;SDS011;26164;51.138;16.952;2023-07-13T10:45:41;5.07;;;1.48;;
40459;SDS011;26164;51.138;16.952;2023-07-13T10:48:08;4.80;;;1.08;;
40459;SDS011;26164;51.138;16.952;2023-07-13T10:50:36;3.00;;;1.27;;
40459;SDS011;26164;51.138;16.952;2023-07-13T10:53:15;3.90;;;1.60;;
40459;SDS011;26164;51.138;16.952;2023-07-13T11:00:49;2.88;;;1.40;;
40459;SDS011;26164;51.138;16.952;2023-07-13T11:03:17;3.03;;;1.50;;
40459;SDS011;26164;51.138;16.952;2023-07-13T11:05:45;3.22;;;1.38;;
40459;SDS011;26164;51.138;16.952;2023-07-13T11:08:18;10.48;;;1.67;;
40459;SDS011;26164;51.138;16.952;2023-07-13T11:15:59;2.75;;;1.27;;
40459;SDS011;26164;51.138;16.952;2023-07-13T11:18:25;3.75;;;1.73;;
40459;SDS011;26164;51.138;16.952;2023-07-13T11:20:51;4.13;;;1.17;;
40459;SDS011;26164;51.138;16.952;2023-07-13T11:23:18;2.30;;;1.15;;
40459;SDS011;26164;51.138;16.952;2023-07-13T11:25:45;2.78;;;1.40;;
40459;SDS011;26164;51.138;16.952;2023-07-13T11:30:38;3.25;;;1.00;;
40459;SDS011;26164;51.138;16.952;2023-07-13T11:33:13;5.38;;;1.00;;
40459;SDS011;26164;51.138;16.952;2023-07-13T11:38:22;3.70;;;1.23;;
40459;SDS011;26164;51.138;16.952;2023-07-13T11:40:50;2.67;;;0.98;;
40459;SDS011;26164;51.138;16.952;2023-07-13T11:43:17;3.30;;;1.20;;
40459;SDS011;26164;51.138;16.952;2023-07-13T11:45:44;4.47;;;1.08;;
40459;SDS011;26164;51.138;16.952;2023-07-13T11:48:19;5.78;;;0.90;;
40459;SDS011;26164;51.138;16.952;2023-07-13T11:50:54;4.43;;;1.10;;
40459;SDS011;26164;51.138;16.952;2023-07-13T11:53:21;3.70;;;1.00;;
40459;SDS011;26164;51.138;16.952;2023-07-13T11:55:47;3.53;;;1.02;;
40459;SDS011;26164;51.138;16.952;2023-07-13T11:58:14;3.97;;;0.80;;
40459;SDS011;26164;51.138;16.952;2023-07-13T12:00:42;7.55;;;1.30;;
40459;SDS011;26164;51.138;16.952;2023-07-13T12:03:10;4.82;;;1.55;;
40459;SDS011;26164;51.138;16.952;2023-07-13T12:05:37;3.75;;;0.70;;
40459;SDS011;26164;51.138;16.952;2023-07-13T12:08:08;4.43;;;1.10;;
40459;SDS011;26164;51.138;16.952;2023-07-13T12:10:36;2.83;;;1.20;;
40459;SDS011;26164;51.138;16.952;2023-07-13T12:13:04;3.65;;;0.90;;
40459;SDS011;26164;51.138;16.952;2023-07-13T12:15:36;6.88;;;1.30;;
40459;SDS011;26164;51.138;16.952;2023-07-13T12:18:28;2.45;;;1.00;;
40459;SDS011;26164;51.138;16.952;2023-07-13T12:20:49;1.67;;;0.80;;
40459;SDS011;26164;51.138;16.952;2023-07-13T12:23:28;3.95;;;0.93;;
40459;SDS011;26164;51.138;16.952;2023-07-13T12:25:55;2.65;;;1.02;;
40459;SDS011;26164;51.138;16.952;2023-07-13T12:28:28;1.90;;;0.85;;
40459;SDS011;26164;51.138;16.952;2023-07-13T12:30:59;3.33;;;0.93;;
40459;SDS011;26164;51.138;16.952;2023-07-13T12:33:29;2.45;;;0.70;;
40459;SDS011;26164;51.138;16.952;2023-07-13T12:35:57;4.28;;;0.95;;
40459;SDS011;26164;51.138;16.952;2023-07-13T12:38:27;2.25;;;0.70;;
40459;SDS011;26164;51.138;16.952;2023-07-13T12:40:53;3.45;;;0.80;;
40459;SDS011;26164;51.138;16.952;2023-07-13T12:43:20;1.60;;;0.70;;
40459;SDS011;26164;51.138;16.952;2023-07-13T12:46:01;2.10;;;0.75;;
40459;SDS011;26164;51.138;16.952;2023-07-13T12:48:26;3.55;;;0.70;;
40459;SDS011;26164;51.138;16.952;2023-07-13T12:50:53;3.47;;;0.90;;
40459;SDS011;26164;51.138;16.952;2023-07-13T12:53:20;3.10;;;1.00;;
40459;SDS011;26164;51.138;16.952;2023-07-13T12:55:47;3.20;;;0.65;;
40459;SDS011;26164;51.138;16.952;2023-07-13T12:58:18;2.40;;;0.70;;
40459;SDS011;26164;51.138;16.952;2023-07-13T13:00:48;5.22;;;0.70;;
40459;SDS011;26164;51.138;16.952;2023-07-13T13:03:26;3.80;;;0.75;;
40459;SDS011;26164;51.138;16.952;2023-07-13T13:08:29;3.20;;;0.85;;
40459;SDS011;26164;51.138;16.952;2023-07-13T13:10:54;5.20;;;0.95;;
40459;SDS011;26164;51.138;16.952;2023-07-13T13:13:20;2.38;;;0.70;;
40459;SDS011;26164;51.138;16.952;2023-07-13T13:15:46;2.45;;;0.77;;
40459;SDS011;26164;51.138;16.952;2023-07-13T13:18:22;2.85;;;0.77;;
40459;SDS011;26164;51.138;16.952;2023-07-13T13:20:49;2.38;;;0.85;;
40459;SDS011;26164;51.138;16.952;2023-07-13T13:23:16;4.65;;;0.80;;
40459;SDS011;26164;51.138;16.952;2023-07-13T13:25:44;3.70;;;0.70;;
40459;SDS011;26164;51.138;16.952;2023-07-13T13:28:17;2.55;;;0.60;;
40459;SDS011;26164;51.138;16.952;2023-07-13T13:33:10;6.10;;;0.80;;
40459;SDS011;26164;51.138;16.952;2023-07-13T13:35:36;3.13;;;0.80;;
40459;SDS011;26164;51.138;16.952;2023-07-13T13:38:02;1.83;;;0.70;;
40459;SDS011;26164;51.138;16.952;2023-07-13T13:40:28;3.50;;;0.75;;
40459;SDS011;26164;51.138;16.952;2023-07-13T13:42:53;3.33;;;0.85;;
40459;SDS011;26164;51.138;16.952;2023-07-13T13:45:20;1.90;;;0.70;;
40459;SDS011;26164;51.138;16.952;2023-07-13T13:47:46;3.90;;;0.80;;
40459;SDS011;26164;51.138;16.952;2023-07-13T13:50:14;1.55;;;0.50;;
40459;SDS011;26164;51.138;16.952;2023-07-13T13:52:41;2.22;;;0.85;;
40459;SDS011;26164;51.138;16.952;2023-07-13T13:55:25;2.53;;;0.52;;
40459;SDS011;26164;51.138;16.952;2023-07-13T13:57:50;4.18;;;0.95;;
40459;SDS011;26164;51.138;16.952;2023-07-13T14:00:16;3.45;;;0.68;;
40459;SDS011;26164;51.138;16.952;2023-07-13T14:02:46;3.25;;;0.80;;
40459;SDS011;26164;51.138;16.952;2023-07-13T14:05:13;3.17;;;0.60;;
40459;SDS011;26164;51.138;16.952;2023-07-13T14:07:41;2.45;;;0.50;;
40459;SDS011;26164;51.138;16.952;2023-07-13T14:10:14;3.00;;;0.50;;
40459;SDS011;26164;51.138;16.952;2023-07-13T14:12:41;1.42;;;0.50;;
40459;SDS011;26164;51.138;16.952;2023-07-13T14:15:13;3.72;;;0.68;;
40459;SDS011;26164;51.138;16.952;2023-07-13T14:17:39;4.03;;;0.70;;
40459;SDS011;26164;51.138;16.952;2023-07-13T14:20:09;4.05;;;0.70;;
40459;SDS011;26164;51.138;16.952;2023-07-13T14:22:36;1.73;;;0.60;;
40459;SDS011;26164;51.138;16.952;2023-07-13T14:25:02;2.70;;;0.60;;
40459;SDS011;26164;51.138;16.952;2023-07-13T14:27:27;2.50;;;0.57;;
40459;SDS011;26164;51.138;16.952;2023-07-13T14:29:54;4.90;;;0.70;;
40459;SDS011;26164;51.138;16.952;2023-07-13T14:32:20;3.20;;;0.65;;
40459;SDS011;26164;51.138;16.952;2023-07-13T14:34:46;2.17;;;0.65;;
40459;SDS011;26164;51.138;16.952;2023-07-13T14:37:12;3.90;;;0.95;;
40459;SDS011;26164;51.138;16.952;2023-07-13T14:39:39;2.00;;;0.80;;
40459;SDS011;26164;51.138;16.952;2023-07-13T14:42:04;0.90;;;0.40;;
40459;SDS011;26164;51.138;16.952;2023-07-13T14:44:30;1.63;;;0.50;;
40459;SDS011;26164;51.138;16.952;2023-07-13T14:46:57;2.40;;;0.63;;
40459;SDS011;26164;51.138;16.952;2023-07-13T14:49:30;2.08;;;0.50;;
40459;SDS011;26164;51.138;16.952;2023-07-13T14:51:58;1.70;;;0.40;;
40459;SDS011;26164;51.138;16.952;2023-07-13T14:54:24;3.53;;;0.82;;
40459;SDS011;26164;51.138;16.952;2023-07-13T14:56:50;3.83;;;0.60;;
40459;SDS011;26164;51.138;16.952;2023-07-13T14:59:16;2.47;;;0.70;;
40459;SDS011;26164;51.138;16.952;2023-07-13T15:01:44;1.98;;;0.80;;
40459;SDS011;26164;51.138;16.952;2023-07-13T15:04:10;3.08;;;0.93;;
40459;SDS011;26164;51.138;16.952;2023-07-13T15:06:55;3.63;;;0.93;;
40459;SDS011;26164;51.138;16.952;2023-07-13T15:09:22;1.58;;;0.55;;